Time;durP1;ratioP1;P1;durP2;ratioP2;P2;SDS_P1;SDS_P2;PMS_P1;PMS_P2;Temp;Humidity;BMP_temperature;BMP_pressure;BME280_temperature;BME280_humidity;BME280_pressure;Samples;Min_cycle;Max_cycle;Signal;HPM_P1;HPM_P2
2021/12/23 00:01:45;;;;;;;34.20;23.53;;;;;;;-0.87;76.72;101581.97;5092677;28;20039;-80
2021/12/23 00:04:13;;;;;;;42.07;24.50;;;;;;;-0.94;76.92;101576.78;5092462;28;20462;-80
2021/12/23 00:06:41;;;;;;;33.90;23.17;;;;;;;-0.93;76.52;101575.91;5092732;28;20153;-80
2021/12/23 00:09:06;;;;;;;33.50;24.00;;;;;;;-0.99;76.35;101554.16;5070688;28;20150;-77
2021/12/23 00:11:34;;;;;;;33.00;22.87;;;;;;;-0.98;76.91;101554.16;5090938;28;20114;-78
2021/12/23 00:14:04;;;;;;;34.60;24.77;;;;;;;-0.90;76.16;101566.31;5092165;28;20028;-79
2021/12/23 00:19:22;;;;;;;37.83;23.13;;;;;;;-1.02;76.59;101555.06;5092111;28;19946;-79
2021/12/23 00:24:33;;;;;;;36.23;23.37;;;;;;;-1.03;76.77;101542.88;5092590;28;20112;-80
2021/12/23 00:26:58;;;;;;;32.30;23.00;;;;;;;-1.01;77.01;101540.25;5073819;28;20043;-79
2021/12/23 00:29:26;;;;;;;34.93;23.27;;;;;;;-1.02;76.68;101533.31;5056851;28;20462;-79
2021/12/23 00:31:55;;;;;;;36.10;23.70;;;;;;;-0.92;76.46;101534.97;5079430;28;20114;-78
2021/12/23 00:34:23;;;;;;;34.77;23.53;;;;;;;-0.96;76.29;101509.78;5071972;28;20103;-78
2021/12/23 00:36:49;;;;;;;33.37;22.87;;;;;;;-0.95;76.59;101504.53;5053794;28;20032;-78
2021/12/23 00:39:16;;;;;;;32.77;23.40;;;;;;;-0.95;76.97;101501.06;5071515;28;20028;-80
2021/12/23 00:41:44;;;;;;;31.90;22.57;;;;;;;-1.04;76.55;101496.75;5053850;28;20044;-81
2021/12/23 00:44:13;;;;;;;35.83;22.87;;;;;;;-1.04;76.61;101506.34;5071432;28;20024;-77
2021/12/23 00:46:39;;;;;;;33.03;23.50;;;;;;;-1.12;76.29;101500.28;5071601;28;20028;-77
2021/12/23 00:49:06;;;;;;;37.50;24.30;;;;;;;-1.18;76.40;101486.41;5070880;28;20429;-79
2021/12/23 00:51:34;;;;;;;34.53;22.93;;;;;;;-1.19;76.28;101482.03;5071843;28;20020;-79
2021/12/23 00:54:04;;;;;;;32.80;22.97;;;;;;;-1.15;76.68;101480.28;5071335;28;20035;-79
2021/12/23 00:56:40;;;;;;;34.25;24.23;;;;;;;-1.03;76.44;101495.91;5053984;28;20039;-77
2021/12/23 00:59:09;;;;;;;36.20;24.40;;;;;;;-0.98;76.54;101501.06;5070881;28;20437;-80
2021/12/23 01:01:36;;;;;;;35.75;24.48;;;;;;;-0.97;76.71;101503.69;5053152;28;20052;-77
2021/12/23 01:04:02;;;;;;;32.70;23.10;;;;;;;-0.99;75.73;101515.88;5053535;28;20384;-78
2021/12/23 01:06:28;;;;;;;29.67;22.97;;;;;;;-1.02;76.42;101515.91;5053571;28;20438;-77
2021/12/23 01:08:53;;;;;;;32.97;23.80;;;;;;;-1.16;76.44;101488.97;5070881;28;20032;-79
2021/12/23 01:11:19;;;;;;;37.33;24.03;;;;;;;-0.97;76.04;101508.03;5071392;28;20123;-77
2021/12/23 01:13:59;;;;;;;35.33;23.93;;;;;;;-1.10;76.55;101490.69;5052875;28;20032;-80
2021/12/23 01:16:47;;;;;;;32.10;24.13;;;;;;;-1.12;76.29;101482.88;5071355;28;20065;-77
2021/12/23 01:19:13;;;;;;;33.13;24.10;;;;;;;-1.07;76.63;101485.47;5066468;28;20036;-80
2021/12/23 01:21:38;;;;;;;33.20;24.30;;;;;;;-0.93;76.41;101505.41;5053445;28;20108;-79
2021/12/23 01:24:04;;;;;;;37.87;24.70;;;;;;;-1.00;76.84;101489.75;5052519;28;20020;-78
2021/12/23 01:26:30;;;;;;;35.67;24.10;;;;;;;-0.93;76.69;101501.94;5053189;28;20025;-80
2021/12/23 01:28:58;;;;;;;31.80;23.13;;;;;;;-0.90;76.32;101495.81;5052773;28;20111;-78
2021/12/23 01:31:27;;;;;;;36.57;24.77;;;;;;;-0.88;76.39;101497.56;5078178;28;20055;-79
2021/12/23 01:33:53;;;;;;;33.43;23.57;;;;;;;-0.88;76.62;101494.06;5090864;28;20356;-78
2021/12/23 01:36:19;;;;;;;35.03;24.77;;;;;;;-1.05;75.63;101458.47;5091233;28;20402;-80
2021/12/23 01:38:45;;;;;;;36.83;22.83;;;;;;;-1.00;75.96;101474.09;5056431;28;20103;-81
2021/12/23 01:41:12;;;;;;;33.53;24.33;;;;;;;-1.00;76.53;101468.88;5089327;28;20052;-78
2021/12/23 01:43:40;;;;;;;35.30;23.57;;;;;;;-1.07;76.80;101455.00;5095312;28;20028;-79
2021/12/23 01:46:06;;;;;;;36.20;25.07;;;;;;;-0.98;76.25;101465.38;5094347;28;20093;-77
2021/12/23 01:48:32;;;;;;;35.40;24.03;;;;;;;-0.93;76.10;101475.81;5073447;28;20075;-79
2021/12/23 01:50:58;;;;;;;34.40;23.73;;;;;;;-1.09;76.50;101448.06;5076889;28;20047;-77
2021/12/23 01:53:23;;;;;;;34.43;24.70;;;;;;;-0.96;76.37;101466.25;5094562;28;20020;-78
2021/12/23 01:55:49;;;;;;;38.60;24.47;;;;;;;-1.08;76.47;101442.84;5095130;28;20028;-77
2021/12/23 01:58:15;;;;;;;31.57;22.67;;;;;;;-0.99;76.72;101450.63;5094584;28;20038;-80
2021/12/23 02:00:47;;;;;;;36.50;25.10;;;;;;;-0.96;76.16;101452.34;5095218;28;20055;-77
2021/12/23 02:03:13;;;;;;;35.23;23.63;;;;;;;-1.11;76.67;101437.63;5094723;28;20027;-78
2021/12/23 02:05:39;;;;;;;34.10;23.80;;;;;;;-1.15;76.97;101420.25;5076619;28;20020;-80
2021/12/23 02:08:05;;;;;;;30.40;23.17;;;;;;;-1.07;76.80;101438.47;5076825;28;20043;-80
2021/12/23 02:10:30;;;;;;;35.67;24.63;;;;;;;-1.15;76.83;101417.63;5093186;28;20185;-81
2021/12/23 02:12:56;;;;;;;31.20;24.53;;;;;;;-1.23;76.62;101412.47;5094488;28;20051;-80
2021/12/23 02:15:24;;;;;;;35.13;25.23;;;;;;;-1.06;76.85;101427.16;5094655;28;20031;-79
2021/12/23 02:17:50;;;;;;;35.83;23.50;;;;;;;-1.17;76.89;101425.50;5094466;28;20024;-80
2021/12/23 02:20:22;;;;;;;34.90;24.67;;;;;;;-1.28;76.80;101409.00;5095172;28;20030;-80
2021/12/23 02:22:48;;;;;;;36.50;25.53;;;;;;;-1.13;77.26;101425.47;5094177;28;20428;-77
2021/12/23 02:25:15;;;;;;;32.13;24.13;;;;;;;-1.15;77.55;101428.06;5094505;28;20035;-78
2021/12/23 02:27:40;;;;;;;33.40;23.57;;;;;;;-1.15;77.33;101434.19;5094339;28;20020;-78
2021/12/23 02:30:15;;;;;;;35.47;25.03;;;;;;;-1.16;77.63;101429.81;5093142;28;20532;-78
2021/12/23 02:32:41;;;;;;;35.13;24.40;;;;;;;-1.17;77.32;101435.06;5060178;28;20052;-78
2021/12/23 02:35:11;;;;;;;39.47;24.53;;;;;;;-1.39;77.20;101401.22;5055368;28;20115;-78
2021/12/23 02:37:37;;;;;;;35.93;25.37;;;;;;;-1.37;77.15;101411.69;5065607;28;20037;-80
2021/12/23 02:40:03;;;;;;;34.37;23.47;;;;;;;-1.18;77.50;101430.69;5068165;28;20031;-77
2021/12/23 02:42:31;;;;;;;35.10;22.87;;;;;;;-1.23;76.98;101424.66;5056169;28;20029;-77
2021/12/23 02:44:58;;;;;;;37.10;25.13;;;;;;;-1.22;77.12;101447.25;5073518;28;20028;-79
2021/12/23 02:47:26;;;;;;;35.00;23.93;;;;;;;-1.22;77.41;101429.00;5073822;28;20025;-77
2021/12/23 02:49:52;;;;;;;39.20;23.80;;;;;;;-1.25;77.60;101429.00;5073593;28;20032;-78
2021/12/23 02:52:18;;;;;;;36.77;25.83;;;;;;;-1.36;77.13;101418.63;5073603;28;20039;-79
2021/12/23 02:54:53;;;;;;;38.70;25.50;;;;;;;-1.30;77.57;101423.81;5072482;28;20036;-78
2021/12/23 02:57:18;;;;;;;35.70;24.50;;;;;;;-1.30;77.71;101415.13;5057079;28;20035;-77
2021/12/23 02:59:44;;;;;;;38.67;26.17;;;;;;;-1.28;77.61;101406.41;5055322;28;20115;-77
2021/12/23 03:02:09;;;;;;;34.90;24.80;;;;;;;-1.29;77.10;101403.81;5038737;28;20028;-79
2021/12/23 03:04:35;;;;;;;36.60;25.30;;;;;;;-1.35;77.47;101402.09;5034886;28;20041;-78
2021/12/23 03:07:00;;;;;;;37.47;25.57;;;;;;;-1.43;77.10;101386.47;5039044;28;20392;-77
2021/12/23 03:09:25;;;;;;;36.27;24.43;;;;;;;-1.32;77.10;101393.38;5072903;28;20032;-79
2021/12/23 03:11:51;;;;;;;37.17;25.43;;;;;;;-1.36;77.24;101397.75;5073387;28;20036;-78
2021/12/23 03:14:17;;;;;;;37.60;25.00;;;;;;;-1.38;77.76;101399.50;5037996;28;20029;-79
2021/12/23 03:16:42;;;;;;;35.67;25.40;;;;;;;-1.41;77.81;101397.78;5073380;28;20032;-80
2021/12/23 03:19:08;;;;;;;36.40;23.47;;;;;;;-1.46;77.92;101383.03;5054996;28;20387;-76
2021/12/23 03:21:35;;;;;;;34.70;24.37;;;;;;;-1.59;77.92;101358.72;5073083;28;20055;-77
2021/12/23 03:24:00;;;;;;;39.67;26.27;;;;;;;-1.45;77.62;101377.78;5073199;28;20132;-77
2021/12/23 03:26:26;;;;;;;35.47;25.00;;;;;;;-1.57;78.15;101362.22;5054735;28;20132;-80
2021/12/23 03:28:52;;;;;;;37.67;25.37;;;;;;;-1.56;78.45;101356.09;5054761;28;20108;-79
2021/12/23 03:31:17;;;;;;;40.77;25.87;;;;;;;-1.54;77.76;101345.69;5061072;28;20051;-78
2021/12/23 03:33:43;;;;;;;34.83;25.23;;;;;;;-1.48;78.28;101354.34;5075051;28;20626;-79
2021/12/23 03:36:08;;;;;;;37.80;24.63;;;;;;;-1.83;78.37;101273.69;5074524;28;20036;-79
2021/12/23 03:38:34;;;;;;;38.57;26.53;;;;;;;-1.54;78.46;101333.50;5074849;28;20072;-77
2021/12/23 03:41:00;;;;;;;37.57;25.67;;;;;;;-1.52;77.88;101357.84;5074917;28;20024;-80
2021/12/23 03:43:26;;;;;;;37.63;26.63;;;;;;;-1.48;78.19;101341.28;5074860;28;20169;-78
2021/12/23 03:45:54;;;;;;;42.17;27.47;;;;;;;-1.63;78.03;101310.09;5093097;28;20073;-78
2021/12/23 03:48:20;;;;;;;41.07;26.93;;;;;;;-1.62;78.66;101307.47;5092537;28;20024;-77
2021/12/23 03:50:47;;;;;;;39.83;26.87;;;;;;;-1.56;78.54;101306.56;5092828;28;20027;-79
2021/12/23 03:53:13;;;;;;;38.60;27.20;;;;;;;-1.66;78.36;101287.50;5092983;28;20077;-80
2021/12/23 03:55:39;;;;;;;38.43;26.87;;;;;;;-1.62;78.34;101290.94;5092860;28;20190;-79
2021/12/23 03:58:05;;;;;;;41.63;28.13;;;;;;;-1.60;78.88;101274.41;5092602;28;20138;-81
2021/12/23 04:00:31;;;;;;;41.10;28.53;;;;;;;-1.55;78.91;101270.94;5074201;28;20081;-78
2021/12/23 04:02:57;;;;;;;39.80;28.53;;;;;;;-1.47;78.60;101292.59;5093194;28;20073;-80
2021/12/23 04:05:23;;;;;;;40.33;27.87;;;;;;;-1.75;78.92;101248.44;5091865;28;20527;-78
2021/12/23 04:07:49;;;;;;;39.27;27.33;;;;;;;-1.55;79.04;101284.84;5092706;28;20084;-77
2021/12/23 04:10:17;;;;;;;40.00;27.37;;;;;;;-1.47;79.29;101297.81;5074715;28;20028;-79
2021/12/23 04:12:44;;;;;;;43.03;29.10;;;;;;;-1.48;79.19;101306.53;5074099;28;20119;-78
2021/12/23 04:15:11;;;;;;;43.20;29.07;;;;;;;-1.53;79.08;101288.31;5074068;28;20038;-79
2021/12/23 04:17:39;;;;;;;40.30;28.03;;;;;;;-1.54;79.36;101262.22;5073958;28;20020;-80
2021/12/23 04:22:44;;;;;;;45.50;30.50;;;;;;;-1.46;78.97;101276.09;5092401;28;20032;-77
2021/12/23 04:25:13;;;;;;;47.53;30.70;;;;;;;-1.68;79.17;101244.06;5073685;28;20309;-77
2021/12/23 04:27:41;;;;;;;44.90;30.50;;;;;;;-1.60;79.15;101248.34;5092258;28;20224;-78
2021/12/23 04:30:10;;;;;;;43.70;29.43;;;;;;;-1.45;78.83;101275.19;5092246;28;20024;-77
2021/12/23 04:32:36;;;;;;;48.50;30.57;;;;;;;-1.44;79.45;101282.13;5092118;28;20475;-78
2021/12/23 04:35:02;;;;;;;46.13;31.50;;;;;;;-1.52;78.60;101263.94;5057165;28;20027;-80
2021/12/23 04:37:27;;;;;;;48.10;31.63;;;;;;;-1.55;79.31;101263.09;5072687;28;20032;-77
2021/12/23 04:39:53;;;;;;;51.30;31.50;;;;;;;-1.67;78.75;101217.13;5057093;28;20047;-80
2021/12/23 04:42:19;;;;;;;44.33;31.07;;;;;;;-1.47;79.60;101256.97;5092035;28;20088;-78
2021/12/23 04:44:44;;;;;;;47.10;30.97;;;;;;;-1.48;79.50;101270.00;5092074;28;20024;-77
2021/12/23 04:47:10;;;;;;;46.43;30.17;;;;;;;-1.48;79.34;101251.75;5091396;28;20050;-79
2021/12/23 04:49:35;;;;;;;45.97;30.63;;;;;;;-1.47;79.65;101237.81;5057080;28;20028;-77
2021/12/23 04:52:01;;;;;;;50.03;31.47;;;;;;;-1.53;79.80;101228.31;5073274;28;20491;-79
2021/12/23 04:54:26;;;;;;;48.13;31.57;;;;;;;-1.60;79.26;101221.41;5073646;28;20081;-80
2021/12/23 04:56:52;;;;;;;46.03;32.37;;;;;;;-1.46;79.69;101237.81;5091252;28;20551;-77
2021/12/23 04:59:18;;;;;;;46.67;32.30;;;;;;;-1.46;79.26;101239.56;5056984;28;20032;-78
2021/12/23 05:01:45;;;;;;;50.80;32.10;;;;;;;-1.45;79.65;101226.50;5055577;28;20048;-76
2021/12/23 05:04:11;;;;;;;50.17;33.37;;;;;;;-1.54;79.32;101204.84;5073690;28;20493;-78
2021/12/23 05:06:37;;;;;;;51.57;32.67;;;;;;;-1.45;79.65;101220.41;5091472;28;20043;-79
2021/12/23 05:09:05;;;;;;;50.57;32.93;;;;;;;-1.57;79.76;101194.44;5090967;28;20358;-79
2021/12/23 05:11:32;;;;;;;49.63;33.97;;;;;;;-1.45;79.21;101217.81;5073658;28;20056;-78
2021/12/23 05:13:58;;;;;;;53.17;34.23;;;;;;;-1.55;79.63;101195.31;5091472;28;20028;-78
2021/12/23 05:16:23;;;;;;;52.47;35.00;;;;;;;-1.49;79.64;101203.94;5072415;28;20038;-78
2021/12/23 05:18:51;;;;;;;55.37;35.10;;;;;;;-1.61;79.88;101191.84;5036466;28;20043;-80
2021/12/23 05:21:17;;;;;;;54.73;34.57;;;;;;;-1.43;79.88;101216.06;5090944;28;20032;-79
2021/12/23 05:23:45;;;;;;;54.90;34.67;;;;;;;-1.43;79.59;101210.84;5056490;28;20502;-78
2021/12/23 05:26:10;;;;;;;54.03;34.47;;;;;;;-1.42;80.15;101209.97;5056419;28;20111;-78
2021/12/23 05:28:36;;;;;;;54.93;36.93;;;;;;;-1.59;79.93;101178.78;5069956;28;20115;-78
2021/12/23 05:31:03;;;;;;;58.13;36.10;;;;;;;-1.40;79.86;101201.25;5071346;28;20126;-79
2021/12/23 05:33:28;;;;;;;56.03;37.17;;;;;;;-1.42;79.81;101194.31;5082740;28;20467;-80
2021/12/23 05:35:55;;;;;;;55.90;37.40;;;;;;;-1.40;79.34;101203.84;5061501;28;20038;-77
2021/12/23 05:38:23;;;;;;;64.63;37.47;;;;;;;-1.47;79.85;101193.47;5071992;28;20082;-80
2021/12/23 05:40:48;;;;;;;56.87;37.83;;;;;;;-1.34;80.09;101204.69;5071287;28;20048;-77
2021/12/23 05:43:14;;;;;;;61.70;39.10;;;;;;;-1.32;79.79;101198.59;5083001;28;20627;-77
2021/12/23 05:45:39;;;;;;;61.00;39.10;;;;;;;-1.32;79.51;101195.97;5091267;28;20028;-77
2021/12/23 05:48:05;;;;;;;55.73;37.73;;;;;;;-1.41;79.34;101176.06;5090738;28;20032;-80
2021/12/23 05:50:30;;;;;;;60.00;38.27;;;;;;;-1.35;79.48;101175.13;5053202;28;20131;-77
2021/12/23 05:52:56;;;;;;;57.73;37.43;;;;;;;-1.31;79.93;101173.38;5083075;28;20099;-77
2021/12/23 05:55:21;;;;;;;61.03;36.57;;;;;;;-1.32;79.42;101169.00;5072749;28;20532;-78
2021/12/23 05:57:49;;;;;;;54.90;35.30;;;;;;;-1.34;79.66;101179.47;5090898;28;20034;-80
2021/12/23 06:00:20;;;;;;;56.70;35.87;;;;;;;-1.32;79.18;101189.88;5091010;28;20336;-80
2021/12/23 06:02:46;;;;;;;56.53;36.10;;;;;;;-1.49;79.38;101161.34;5091502;28;20028;-79
2021/12/23 06:05:12;;;;;;;54.40;35.47;;;;;;;-1.28;79.35;101187.25;5090792;28;20028;-81
2021/12/23 06:07:38;;;;;;;60.50;36.13;;;;;;;-1.44;79.66;101157.81;5090328;28;20039;-79
2021/12/23 06:10:04;;;;;;;55.70;35.53;;;;;;;-1.31;79.55;101202.91;5073056;28;20591;-78
2021/12/23 06:12:29;;;;;;;59.13;36.80;;;;;;;-1.30;80.10;101196.81;5090696;28;20550;-79
2021/12/23 06:14:54;;;;;;;57.27;35.77;;;;;;;-1.28;79.49;101192.44;5073263;28;20110;-79
2021/12/23 06:17:22;;;;;;;61.43;35.77;;;;;;;-1.31;79.57;101183.81;5035904;28;20180;-81
2021/12/23 06:19:48;;;;;;;57.37;33.77;;;;;;;-1.27;80.36;101177.66;5085534;28;20032;-80
2021/12/23 06:22:13;;;;;;;56.23;35.57;;;;;;;-1.33;80.02;101154.25;5090867;28;20421;-77
2021/12/23 06:24:43;;;;;;;54.77;35.53;;;;;;;-1.36;79.92;101147.31;5072433;28;20028;-79
2021/12/23 06:27:09;;;;;;;53.92;34.80;;;;;;;-1.26;79.52;101156.78;5090542;28;20028;-78
2021/12/23 06:29:34;;;;;;;54.03;34.90;;;;;;;-1.34;80.00;101144.69;5092277;28;20024;-78
2021/12/23 06:31:59;;;;;;;59.77;36.73;;;;;;;-1.23;79.40;101158.50;5059234;28;20134;-78
2021/12/23 06:34:25;;;;;;;54.23;34.17;;;;;;;-1.17;79.87;101153.22;5094043;28;20475;-80
2021/12/23 06:36:50;;;;;;;55.13;34.60;;;;;;;-1.30;79.46;101131.59;5075881;28;20035;-77
2021/12/23 06:39:20;;;;;;;54.57;35.00;;;;;;;-1.21;79.45;101146.28;5081645;28;20036;-80
2021/12/23 06:41:48;;;;;;;59.75;36.22;;;;;;;-1.21;79.47;101149.75;5088036;28;20119;-78
2021/12/23 06:44:13;;;;;;;56.83;35.20;;;;;;;-1.22;79.99;101137.59;5094186;28;20032;-80
2021/12/23 06:46:40;;;;;;;60.53;37.60;;;;;;;-1.25;79.74;101114.16;5059364;28;20497;-79
2021/12/23 06:49:05;;;;;;;56.93;34.77;;;;;;;-1.19;79.55;101123.66;5075528;28;20024;-79
2021/12/23 06:51:31;;;;;;;56.67;34.80;;;;;;;-1.35;80.07;101104.69;5059245;28;20043;-79
2021/12/23 06:53:58;;;;;;;55.77;34.87;;;;;;;-1.21;79.59;101126.28;5057824;28;20280;-79
2021/12/23 06:56:25;;;;;;;55.40;34.50;;;;;;;-1.29;79.47;101114.22;5086894;28;20034;-79
2021/12/23 06:58:50;;;;;;;55.13;34.73;;;;;;;-1.15;79.95;101133.19;5075145;28;20028;-78
2021/12/23 07:01:18;;;;;;;54.20;33.87;;;;;;;-1.40;80.15;101098.66;5075784;28;20044;-81
2021/12/23 07:06:36;;;;;;;61.80;34.80;;;;;;;-1.23;79.73;101115.00;5094257;28;20040;-78
2021/12/23 07:09:04;;;;;;;60.33;34.73;;;;;;;-1.22;80.50;101115.88;5093464;28;20032;-77
2021/12/23 07:11:31;;;;;;;52.43;32.97;;;;;;;-1.08;80.18;101131.41;5075602;28;20024;-79
2021/12/23 07:13:56;;;;;;;56.80;34.50;;;;;;;-1.13;79.53;101130.56;5093596;28;20035;-78
2021/12/23 07:16:21;;;;;;;53.17;33.00;;;;;;;-1.10;79.92;101133.16;5075344;28;20415;-77
2021/12/23 07:18:47;;;;;;;59.93;36.00;;;;;;;-1.08;79.64;101124.41;5074934;28;20397;-77
2021/12/23 07:21:13;;;;;;;58.23;35.90;;;;;;;-1.24;80.04;101100.22;5058322;28;20023;-78
2021/12/23 07:23:38;;;;;;;54.97;33.97;;;;;;;-1.16;80.66;101107.97;5092708;28;20040;-81
2021/12/23 07:26:04;;;;;;;54.17;33.53;;;;;;;-1.04;80.18;101130.47;5073002;28;20114;-77
2021/12/23 07:28:29;;;;;;;58.47;33.37;;;;;;;-1.13;80.05;101110.56;5074951;28;20032;-79
2021/12/23 07:30:55;;;;;;;59.97;34.70;;;;;;;-1.01;80.57;101130.44;5074706;28;20317;-79
2021/12/23 07:33:21;;;;;;;58.57;34.57;;;;;;;-0.98;80.51;101127.78;5058091;28;20032;-78
2021/12/23 07:35:49;;;;;;;53.07;34.03;;;;;;;-1.07;79.30;101110.47;5074933;28;20024;-78
2021/12/23 07:38:15;;;;;;;61.60;34.97;;;;;;;-1.08;79.73;101127.03;5093192;28;20043;-79
2021/12/23 07:40:44;;;;;;;52.80;34.10;;;;;;;-0.96;80.36;101142.56;5092907;28;20036;-80
2021/12/23 07:43:20;;;;;;;55.80;33.20;;;;;;;-0.93;80.28;101141.66;5093247;28;20028;-79
2021/12/23 07:45:45;;;;;;;63.97;36.27;;;;;;;-0.93;80.59;101145.13;5059466;28;20118;-78
2021/12/23 07:48:13;;;;;;;55.03;34.23;;;;;;;-0.90;80.43;101140.75;5093207;28;20380;-78
2021/12/23 07:50:46;;;;;;;54.50;35.47;;;;;;;-0.89;80.08;101142.47;5074638;28;20471;-79
2021/12/23 07:53:12;;;;;;;58.00;35.63;;;;;;;-0.87;80.37;101138.97;5093083;28;20507;-80
2021/12/23 07:55:42;;;;;;;56.57;35.97;;;;;;;-0.86;79.98;101134.63;5074287;28;20032;-77
2021/12/23 07:58:07;;;;;;;59.10;35.15;;;;;;;-0.82;80.13;101137.19;5055533;28;20043;-77
2021/12/23 08:00:35;;;;;;;55.83;35.67;;;;;;;-0.89;79.44;101121.59;5072533;28;20479;-79
2021/12/23 08:03:02;;;;;;;57.70;35.57;;;;;;;-0.94;79.87;101114.69;5038281;28;20036;-77
2021/12/23 08:05:28;;;;;;;53.90;33.73;;;;;;;-0.88;79.90;101113.75;5084227;28;20022;-78
2021/12/23 08:07:56;;;;;;;56.03;34.47;;;;;;;-0.87;80.21;101109.41;5092464;28;20463;-79
2021/12/23 08:10:22;;;;;;;56.20;33.87;;;;;;;-0.77;80.14;101118.84;5072844;28;20043;-77
2021/12/23 08:12:48;;;;;;;56.20;33.97;;;;;;;-0.73;80.47;101125.78;5054335;28;20024;-80
2021/12/23 08:15:13;;;;;;;56.43;35.00;;;;;;;-0.74;79.40;101119.66;5086995;28;20026;-78
2021/12/23 08:17:39;;;;;;;57.73;35.83;;;;;;;-0.71;79.92;101127.50;5092451;28;20379;-78
2021/12/23 08:20:05;;;;;;;58.47;35.60;;;;;;;-0.78;80.22;101107.53;5056810;28;20057;-79
2021/12/23 08:22:34;;;;;;;57.37;34.43;;;;;;;-0.67;80.32;101119.63;5092605;28;20557;-79
2021/12/23 08:25:03;;;;;;;60.70;35.53;;;;;;;-0.68;79.85;101118.72;5092250;28;20024;-78
2021/12/23 08:27:30;;;;;;;59.73;34.80;;;;;;;-0.66;80.17;101109.13;5074232;28;20028;-80
2021/12/23 08:29:56;;;;;;;55.47;34.07;;;;;;;-0.58;80.24;101101.22;5092003;28;20073;-80
2021/12/23 08:32:22;;;;;;;54.80;34.37;;;;;;;-0.56;79.74;101107.25;5073865;28;20056;-78
2021/12/23 08:34:48;;;;;;;56.77;34.50;;;;;;;-0.53;80.35;101099.38;5092370;28;20402;-79
2021/12/23 08:37:16;;;;;;;55.57;33.93;;;;;;;-0.53;79.68;101100.25;5092465;28;20069;-77
2021/12/23 08:39:47;;;;;;;57.30;34.90;;;;;;;-0.52;79.94;101095.91;5073841;28;20119;-80
2021/12/23 08:42:16;;;;;;;54.83;32.70;;;;;;;-0.48;79.57;101098.44;5092079;28;20030;-78
2021/12/23 08:44:44;;;;;;;56.23;32.50;;;;;;;-0.66;79.71;101040.38;5092083;28;20059;-79
2021/12/23 08:47:13;;;;;;;56.50;33.70;;;;;;;-0.52;79.95;101054.97;5091645;28;20082;-79
2021/12/23 08:49:41;;;;;;;53.00;34.65;;;;;;;-0.35;79.42;101075.63;5073910;28;20035;-79
2021/12/23 08:52:09;;;;;;;57.43;34.60;;;;;;;-0.31;80.26;101071.22;5073284;28;20481;-81
2021/12/23 08:54:34;;;;;;;56.17;34.60;;;;;;;-0.25;79.77;101069.38;5073572;28;20039;-79
2021/12/23 08:57:00;;;;;;;58.67;35.03;;;;;;;-0.33;79.75;101059.91;5091543;28;20028;-77
2021/12/23 08:59:26;;;;;;;54.70;34.10;;;;;;;-0.28;80.25;101066.81;5073545;28;20142;-78
2021/12/23 09:01:52;;;;;;;58.37;33.47;;;;;;;-0.26;79.37;101061.56;5107400;28;20066;-80
2021/12/23 09:04:21;;;;;;;59.23;35.33;;;;;;;-0.24;80.34;101065.00;5073510;28;20138;-81
2021/12/23 09:06:47;;;;;;;56.33;34.83;;;;;;;-0.20;80.19;101069.31;5074155;28;20024;-78
2021/12/23 09:09:13;;;;;;;54.33;34.03;;;;;;;-0.17;80.19;101057.94;5091515;28;20031;-78
2021/12/23 09:11:38;;;;;;;57.93;35.90;;;;;;;-0.20;79.36;101045.78;5073597;28;20016;-79
2021/12/23 09:14:04;;;;;;;55.43;34.67;;;;;;;-0.04;80.07;101067.31;5091774;28;20024;-81
2021/12/23 09:16:32;;;;;;;57.27;33.73;;;;;;;-0.10;79.40;101039.50;5040155;28;20391;-81
2021/12/23 09:18:58;;;;;;;53.23;33.50;;;;;;;-0.11;78.89;101029.97;5091184;28;20032;-80
2021/12/23 09:21:23;;;;;;;56.17;34.93;;;;;;;-0.04;79.07;101042.03;5091453;28;20463;-78
2021/12/23 09:23:48;;;;;;;56.43;35.20;;;;;;;-0.10;78.50;101026.44;5091579;28;20035;-80
2021/12/23 09:26:14;;;;;;;56.87;33.10;;;;;;;0.02;78.87;101048.06;5073529;28;20093;-76
2021/12/23 09:29:00;;;;;;;60.00;34.67;;;;;;;0.06;78.91;101054.94;5073319;28;20019;-81
2021/12/23 09:34:10;;;;;;;55.67;33.27;;;;;;;-0.02;78.69;101024.56;5051359;28;20594;-77
2021/12/23 09:36:36;;;;;;;57.13;33.23;;;;;;;0.15;78.71;101041.75;5054884;28;20123;-79
2021/12/23 09:39:07;;;;;;;56.70;34.70;;;;;;;0.26;78.82;101046.78;5052856;28;20460;-80
2021/12/23 09:41:33;;;;;;;;;;;;;;;0.35;79.40;101047.47;5071583;28;20372;-79
2021/12/23 09:44:00;;;;;;;53.97;32.60;;;;;;;0.31;78.43;101045.81;5052905;28;19913;-79
2021/12/23 09:46:26;;;;;;;57.43;33.70;;;;;;;0.12;78.59;101016.50;5053404;28;20438;-81
2021/12/23 09:48:52;;;;;;;55.17;32.93;;;;;;;0.27;79.32;101025.84;5035581;28;20024;-79
2021/12/23 09:51:24;;;;;;;56.07;34.53;;;;;;;0.17;79.02;101005.94;5070416;28;20032;-78
2021/12/23 09:53:59;;;;;;;52.77;33.47;;;;;;;0.36;79.42;101032.66;5070069;28;20032;-77
2021/12/23 09:56:29;;;;;;;55.90;34.33;;;;;;;0.25;78.82;101018.91;5069618;28;20020;-78
2021/12/23 09:58:57;;;;;;;55.28;33.08;;;;;;;0.33;79.18;101028.34;5069266;28;20017;-77
2021/12/23 10:01:24;;;;;;;53.50;33.83;;;;;;;0.37;79.19;101023.91;5051398;28;20099;-80
2021/12/23 10:03:55;;;;;;;56.00;34.33;;;;;;;0.37;79.54;101019.53;5071332;28;20025;-79
2021/12/23 10:06:23;;;;;;;52.15;32.17;;;;;;;0.36;79.04;101019.56;5071834;28;20025;-80
2021/12/23 10:08:49;;;;;;;54.73;32.57;;;;;;;0.26;79.62;101007.53;5059651;28;20028;-79
2021/12/23 10:11:26;;;;;;;58.70;34.57;;;;;;;0.36;79.16;101015.19;5074118;28;20027;-80
2021/12/23 10:38:33;;;;;;;59.97;34.73;;;;;;;0.68;79.85;100964.84;5094890;28;20136;-78
2021/12/23 10:41:06;;;;;;;60.10;33.30;;;;;;;0.68;79.87;100940.44;5093194;28;20493;-77
2021/12/23 10:43:41;;;;;;;58.40;35.00;;;;;;;0.74;80.15;100939.47;5093240;28;20028;-78
2021/12/23 10:46:16;;;;;;;54.80;31.07;;;;;;;0.78;80.03;100936.72;5094559;28;20134;-79
2021/12/23 10:49:04;;;;;;;52.30;30.87;;;;;;;0.73;80.03;100908.94;5094308;28;20020;-76
2021/12/23 10:51:55;;;;;;;59.43;33.33;;;;;;;0.77;79.70;100902.75;5094295;28;20024;-79
2021/12/23 11:00:22;;;;;;;59.70;32.87;;;;;;;1.05;80.36;100922.16;5094616;28;20046;-78
2021/12/23 11:03:17;;;;;;;53.85;31.90;;;;;;;1.17;80.09;100917.53;5094412;28;20031;-80
2021/12/23 11:05:51;;;;;;;55.63;33.33;;;;;;;1.25;80.27;100907.75;5094233;28;20100;-78
2021/12/23 11:43:57;;;;;;;50.07;29.30;;;;;;;2.53;76.52;100822.16;5080486;28;20086;-79
2021/12/23 11:46:29;;;;;;;49.07;29.03;;;;;;;2.67;76.92;100830.44;5083558;28;20035;-81
2021/12/23 11:48:57;;;;;;;50.78;30.15;;;;;;;2.76;76.55;100823.19;5083804;28;20024;-81
2021/12/23 11:54:00;;;;;;;49.43;30.00;;;;;;;2.89;75.88;100821.91;5075108;28;20122;-81
2021/12/23 11:56:26;;;;;;;50.17;30.92;;;;;;;3.02;75.83;100817.09;5085293;28;20029;-81
2021/12/23 11:58:56;;;;;;;46.50;29.33;;;;;;;3.00;76.00;100782.13;5086904;28;20120;-80
2021/12/23 12:01:24;;;;;;;46.65;28.65;;;;;;;3.36;75.01;100804.56;5087225;28;20017;-82
2021/12/23 12:04:00;;;;;;;48.17;26.75;;;;;;;3.56;74.10;100801.25;5085009;28;20020;-80
2021/12/23 12:06:46;;;;;;;41.20;27.67;;;;;;;3.55;75.13;100802.16;5096506;28;20032;-81
2021/12/23 12:09:19;;;;;;;41.55;27.48;;;;;;;3.30;74.88;100777.66;5083512;28;20024;-78
2021/12/23 12:12:08;;;;;;;40.92;26.88;;;;;;;3.60;75.50;100817.78;5073786;28;20039;-80
2021/12/23 12:14:36;;;;;;;45.63;28.13;;;;;;;3.48;75.28;100810.31;5092361;28;20031;-80
2021/12/23 12:17:23;;;;;;;41.00;26.52;;;;;;;3.45;74.99;100797.28;5092234;28;20032;-79
2021/12/23 12:20:04;;;;;;;44.22;27.77;;;;;;;3.47;76.00;100785.81;5092817;28;20078;-80
2021/12/23 12:22:45;;;;;;;45.53;28.38;;;;;;;3.50;75.28;100780.44;5092778;28;20580;-79
2021/12/23 12:25:23;;;;;;;44.25;27.83;;;;;;;3.40;75.23;100764.09;5091642;28;20093;-80
2021/12/23 12:27:57;;;;;;;45.80;27.75;;;;;;;3.50;75.63;100769.94;5090546;28;20027;-81
2021/12/23 12:30:41;;;;;;;47.63;28.58;;;;;;;3.54;76.04;100760.16;5092631;28;20085;-81
2021/12/23 12:33:34;;;;;;;42.53;26.60;;;;;;;3.53;75.40;100767.19;5091233;28;20126;-81
2021/12/23 12:36:05;;;;;;;42.03;26.83;;;;;;;3.64;75.96;100743.13;5088801;28;20036;-79
2021/12/23 12:38:36;;;;;;;46.08;28.63;;;;;;;3.80;75.56;100746.91;5092636;28;20034;-78